Terminal Aerodrome Forecast
Issued by NWS

Home | Current Version | Previous Version | Text Only | Print | Product List | Glossary On
Versions: 1 2 3 4 5 6 7 8 9 10 11 12 13 14 15 16 17 18 19 20 21 22 23 24
808
FTUS42 TJSJ 162321
TAFKPK
TAF
TKPK 162321Z 1700/1724 05012KT P6SM SCT022 SCT040
     FM170400 05011KT P6SM VCSH SCT018
     FM171400 07015KT P6SM FEW022
     FM172230 05014KT P6SM FEW018 SCT050
      AMD NOT SKED 1702/1711=

USA.gov is the U.S. government's official web portal to all federal, state and local government web resources and services.